createdAt,value
2018-04-23T00:00:34.112Z,80.84
2018-04-23T00:01:41.297Z,81.30
2018-04-23T00:02:49.763Z,81.35
2018-04-23T00:03:56.067Z,82.59
2018-04-23T00:05:02.300Z,82.60
2018-04-23T00:06:08.526Z,82.51
2018-04-23T00:07:14.754Z,82.51
2018-04-23T00:08:22.002Z,82.56
2018-04-23T00:09:28.271Z,82.30
2018-04-23T00:10:37.172Z,82.12
2018-04-23T00:11:43.463Z,82.33
2018-04-23T00:12:49.688Z,81.99
2018-04-23T00:13:55.974Z,82.55
2018-04-23T00:15:02.707Z,82.11
2018-04-23T00:16:09.019Z,83.29
2018-04-23T00:17:16.678Z,83.03
2018-04-23T00:18:24.311Z,83.21
2018-04-23T00:19:30.603Z,82.98
2018-04-23T00:20:36.920Z,82.63
2018-04-23T00:21:43.112Z,82.62
2018-04-23T00:22:49.858Z,82.39
2018-04-23T00:23:56.041Z,82.57
2018-04-23T00:25:02.261Z,82.26
2018-04-23T00:26:08.210Z,82.58
2018-04-23T00:27:14.470Z,82.61
2018-04-23T00:28:21.455Z,82.33
2018-04-23T00:29:27.676Z,82.07
2018-04-23T00:30:34.483Z,81.69
2018-04-23T00:31:40.751Z,81.80
2018-04-23T00:32:47.407Z,82.09
2018-04-23T00:33:54.988Z,81.81
2018-04-23T00:35:01.396Z,81.95
2018-04-23T00:36:07.639Z,82.08
2018-04-23T00:37:13.850Z,82.81
2018-04-23T00:38:20.097Z,83.59
2018-04-23T00:39:26.358Z,83.49
2018-04-23T00:40:32.559Z,83.01
2018-04-23T00:41:38.798Z,82.85
2018-04-23T00:42:45.635Z,82.86
2018-04-23T00:43:51.876Z,83.14
2018-04-23T00:44:57.841Z,82.87
2018-04-23T00:46:04.142Z,83.03
2018-04-23T00:47:23.686Z,82.89
2018-04-23T00:48:34.379Z,83.30
2018-04-23T00:49:40.626Z,83.47
2018-04-23T00:50:46.887Z,83.52
2018-04-23T00:51:53.078Z,83.82
2018-04-23T00:53:10.232Z,83.97
2018-04-23T00:54:16.304Z,83.83
2018-04-23T00:55:22.567Z,84.04
2018-04-23T00:56:28.835Z,84.33
2018-04-23T00:57:35.530Z,84.09
2018-04-23T00:58:42.484Z,84.31
2018-04-23T00:59:48.753Z,83.79
2018-04-23T01:00:54.629Z,83.67
2018-04-23T01:02:00.870Z,83.45
2018-04-23T01:03:07.872Z,83.29
2018-04-23T01:04:14.123Z,83.45
2018-04-23T01:05:20.379Z,83.53
2018-04-23T01:06:26.318Z,83.50
2018-04-23T01:07:32.655Z,83.38
2018-04-23T01:08:38.957Z,83.58
2018-04-23T01:09:46.058Z,83.36
2018-04-23T01:10:52.389Z,83.45
2018-04-23T01:11:58.133Z,83.84
2018-04-23T01:13:04.388Z,83.89
2018-04-23T01:14:10.431Z,84.62
2018-04-23T01:15:16.460Z,84.51
2018-04-23T01:16:22.730Z,83.81
2018-04-23T01:17:29.024Z,83.57
2018-04-23T01:18:35.262Z,84.08
2018-04-23T01:19:44.274Z,84.16
2018-04-23T01:20:50.715Z,84.38
2018-04-23T01:21:56.918Z,84.03
2018-04-23T01:23:07.240Z,83.53
2018-04-23T01:24:13.438Z,83.45
2018-04-23T01:25:20.176Z,83.70
2018-04-23T01:26:26.395Z,83.77
2018-04-23T01:27:32.545Z,83.64
2018-04-23T01:28:38.823Z,83.30
2018-04-23T01:29:44.776Z,83.79
2018-04-23T01:30:51.759Z,83.74
2018-04-23T01:31:58.023Z,83.62
2018-04-23T01:33:04.298Z,83.98
2018-04-23T01:34:11.193Z,84.35
2018-04-23T01:35:22.488Z,84.23
2018-04-23T01:36:28.830Z,84.78
2018-04-23T01:37:35.420Z,85.02
2018-04-23T01:38:41.676Z,85.16
2018-04-23T01:39:47.911Z,85.20
2018-04-23T01:40:54.258Z,85.25
2018-04-23T01:42:00.438Z,85.06
2018-04-23T01:43:06.401Z,85.24
2018-04-23T01:44:12.704Z,85.58
2018-04-23T01:45:19.230Z,85.46
2018-04-23T01:46:25.391Z,85.23
2018-04-23T01:47:31.747Z,85.00
2018-04-23T01:48:38.519Z,84.98
2018-04-23T01:49:44.726Z,85.12
2018-04-23T01:50:52.142Z,84.88
2018-04-23T01:51:59.207Z,84.77
2018-04-23T01:53:05.435Z,84.79
2018-04-23T01:54:11.675Z,84.54
2018-04-23T01:55:17.961Z,84.29
2018-04-23T01:56:24.187Z,84.95
2018-04-23T01:57:31.412Z,84.89
2018-04-23T01:58:37.711Z,85.15
2018-04-23T01:59:43.926Z,84.64
2018-04-23T02:00:50.155Z,84.78
2018-04-23T02:01:56.415Z,84.41
2018-04-23T02:03:02.415Z,84.51
2018-04-23T02:04:08.357Z,84.57
2018-04-23T02:05:14.674Z,84.21
2018-04-23T02:06:23.073Z,84.26
2018-04-23T02:07:30.441Z,84.39
2018-04-23T02:08:36.708Z,84.13
2018-04-23T02:09:43.628Z,83.50
2018-04-23T02:10:49.899Z,83.57
2018-04-23T02:11:56.127Z,83.55
2018-04-23T02:13:02.387Z,83.44
2018-04-23T02:14:08.660Z,83.45
2018-04-23T02:15:14.553Z,83.82
2018-04-23T02:16:20.884Z,83.62
2018-04-23T02:17:27.806Z,83.21
2018-04-23T02:18:34.416Z,83.58
2018-04-23T02:19:41.813Z,84.10
2018-04-23T02:20:48.094Z,84.28
2018-04-23T02:21:54.347Z,84.08
2018-04-23T02:23:00.580Z,84.03
2018-04-23T02:24:06.915Z,84.49
2018-04-23T02:25:13.669Z,84.32
2018-04-23T02:26:20.937Z,84.33
2018-04-23T02:27:27.219Z,84.30
2018-04-23T02:28:33.551Z,84.83
2018-04-23T02:29:39.800Z,84.91
2018-04-23T02:30:46.072Z,84.97
2018-04-23T02:31:52.287Z,84.46
2018-04-23T02:33:03.342Z,84.35
2018-04-23T02:34:09.655Z,84.79
2018-04-23T02:35:16.535Z,84.58
2018-04-23T02:36:22.770Z,84.86
2018-04-23T02:37:30.847Z,85.02
2018-04-23T02:38:41.117Z,84.86
2018-04-23T02:39:48.301Z,84.85
2018-04-23T02:40:54.682Z,84.15
2018-04-23T02:42:01.001Z,84.08
2018-04-23T02:43:07.282Z,84.52
2018-04-23T02:44:13.517Z,84.66
2018-04-23T02:45:19.816Z,84.22
2018-04-23T02:46:26.122Z,84.17
2018-04-23T02:47:32.447Z,84.30
2018-04-23T02:48:38.637Z,84.45
2018-04-23T02:49:44.969Z,84.58
2018-04-23T02:50:50.903Z,85.06
2018-04-23T02:51:57.170Z,85.46
2018-04-23T02:53:03.476Z,85.50
2018-04-23T02:54:09.989Z,85.17
2018-04-23T02:55:16.176Z,84.66
2018-04-23T02:56:22.425Z,84.66
2018-04-23T02:57:28.606Z,84.54
2018-04-23T02:58:34.818Z,84.21
2018-04-23T02:59:41.160Z,84.07
2018-04-23T03:00:47.448Z,84.08
2018-04-23T03:01:53.689Z,84.89
2018-04-23T03:03:00.007Z,85.65
2018-04-23T03:04:06.283Z,86.05
2018-04-23T03:05:12.523Z,85.85
2018-04-23T03:06:18.800Z,85.54
2018-04-23T03:07:25.074Z,85.11
2018-04-23T03:08:31.828Z,84.85
2018-04-23T03:09:38.183Z,84.58
2018-04-23T03:10:44.450Z,84.84
2018-04-23T03:11:51.417Z,84.84
2018-04-23T03:12:57.697Z,84.79
2018-04-23T03:14:05.178Z,84.60
2018-04-23T03:15:11.687Z,84.26
2018-04-23T03:16:17.723Z,84.20
2018-04-23T03:17:24.272Z,83.84
2018-04-23T03:18:30.250Z,83.95
2018-04-23T03:19:36.631Z,83.92
2018-04-23T03:20:43.114Z,83.93
2018-04-23T03:21:49.302Z,84.62
2018-04-23T03:22:55.511Z,85.15
2018-04-23T03:24:01.715Z,85.29
2018-04-23T03:25:07.941Z,85.32
2018-04-23T03:26:14.092Z,84.71
2018-04-23T03:27:20.564Z,84.53
2018-04-23T03:28:26.770Z,84.08
2018-04-23T03:29:34.307Z,84.77
2018-04-23T03:30:41.520Z,84.63
2018-04-23T03:31:47.771Z,84.40
2018-04-23T03:32:54.058Z,84.11
2018-04-23T03:34:00.278Z,84.56
2018-04-23T03:35:06.491Z,85.06
2018-04-23T03:36:12.794Z,85.12
2018-04-23T03:37:18.982Z,85.57
2018-04-23T03:38:25.206Z,86.14
2018-04-23T03:39:31.431Z,86.60
2018-04-23T03:40:37.646Z,86.78
2018-04-23T03:41:43.685Z,86.28
2018-04-23T03:42:49.724Z,86.01
2018-04-23T03:43:56.747Z,85.72
2018-04-23T03:45:03.697Z,85.93
2018-04-23T03:46:12.933Z,85.84
2018-04-23T03:47:19.288Z,85.70
2018-04-23T03:48:25.528Z,86.35
2018-04-23T03:49:33.717Z,86.72
2018-04-23T03:50:40.707Z,87.37
2018-04-23T03:51:46.972Z,87.51
2018-04-23T03:52:53.411Z,87.38
2018-04-23T03:53:59.634Z,87.98
2018-04-23T03:55:05.983Z,87.95
2018-04-23T03:56:12.423Z,87.16
2018-04-23T03:57:19.191Z,87.26
2018-04-23T03:58:25.401Z,86.81
2018-04-23T03:59:31.716Z,86.92
2018-04-23T04:00:38.150Z,87.39
2018-04-23T04:01:44.465Z,87.16
2018-04-23T04:02:50.726Z,87.19
2018-04-23T04:03:56.989Z,87.42
2018-04-23T04:05:03.288Z,87.25
2018-04-23T04:06:09.539Z,87.44
2018-04-23T04:07:15.540Z,88.31
2018-04-23T04:08:21.790Z,88.57
2018-04-23T04:09:28.002Z,88.22
2018-04-23T04:10:34.209Z,87.97
2018-04-23T04:11:40.095Z,88.11
2018-04-23T04:12:57.178Z,88.83
2018-04-23T04:14:14.200Z,89.74
2018-04-23T04:15:31.346Z,89.35
2018-04-23T04:16:48.420Z,88.92
2018-04-23T04:19:44.917Z,88.69
2018-04-23T04:20:51.212Z,88.04
2018-04-23T04:21:57.550Z,88.02
2018-04-23T04:23:03.780Z,88.34
2018-04-23T04:24:10.514Z,88.52
2018-04-23T04:25:17.638Z,88.19
2018-04-23T04:26:24.741Z,88.15
2018-04-23T04:27:31.406Z,88.37
2018-04-23T04:28:38.262Z,87.62
2018-04-23T04:29:45.247Z,87.39
2018-04-23T04:30:51.621Z,87.74
2018-04-23T04:32:00.399Z,86.87
2018-04-23T04:33:07.367Z,86.42
2018-04-23T04:34:13.664Z,86.27
2018-04-23T04:35:19.871Z,85.88
2018-04-23T04:36:26.157Z,85.81
2018-04-23T04:37:32.650Z,85.93
2018-04-23T04:38:41.508Z,86.03
2018-04-23T04:39:47.676Z,86.38
2018-04-23T04:40:53.935Z,86.20
2018-04-23T04:42:00.338Z,85.72
2018-04-23T04:43:06.310Z,86.18
2018-04-23T04:44:15.224Z,85.65
2018-04-23T04:45:23.796Z,84.98
2018-04-23T04:46:30.083Z,85.45
2018-04-23T04:47:37.620Z,85.05
2018-04-23T04:48:43.783Z,84.99
2018-04-23T04:49:50.037Z,84.93
2018-04-23T04:50:56.369Z,84.75
2018-04-23T04:52:02.657Z,84.88
2018-04-23T04:53:08.838Z,84.16
2018-04-23T04:54:15.071Z,84.21
2018-04-23T04:55:21.880Z,84.12
2018-04-23T04:56:28.156Z,84.18
2018-04-23T04:57:34.667Z,83.99
2018-04-23T04:58:41.791Z,84.46
2018-04-23T04:59:49.634Z,84.40
2018-04-23T05:00:56.453Z,84.70
2018-04-23T05:02:02.742Z,83.84
2018-04-23T05:03:10.480Z,83.90
2018-04-23T05:04:18.209Z,84.07
2018-04-23T05:05:24.471Z,84.01
2018-04-23T05:06:30.739Z,83.85
2018-04-23T05:07:36.964Z,83.95
2018-04-23T05:08:43.243Z,83.74
2018-04-23T05:09:49.478Z,83.95
2018-04-23T05:10:55.692Z,84.10
2018-04-23T05:12:02.005Z,84.63
2018-04-23T05:13:08.184Z,84.74
2018-04-23T05:14:14.422Z,84.35
2018-04-23T05:15:20.633Z,84.12
2018-04-23T05:16:26.977Z,84.42
2018-04-23T05:17:33.258Z,84.26
2018-04-23T05:18:39.698Z,84.66
2018-04-23T05:19:47.122Z,84.51
2018-04-23T05:20:53.391Z,84.81
2018-04-23T05:21:59.634Z,84.47
2018-04-23T05:23:05.942Z,85.37
2018-04-23T05:24:12.236Z,84.98
2018-04-23T05:25:19.181Z,85.02
2018-04-23T05:26:25.515Z,86.49
2018-04-23T05:27:31.812Z,86.49
2018-04-23T05:28:38.095Z,87.11
2018-04-23T05:29:44.435Z,87.28
2018-04-23T05:30:50.740Z,87.66
2018-04-23T05:31:57.083Z,87.96
2018-04-23T05:33:03.386Z,89.01
2018-04-23T05:34:09.680Z,88.61
2018-04-23T05:35:15.995Z,89.09
2018-04-23T05:36:22.449Z,88.80
2018-04-23T05:37:28.914Z,89.30
2018-04-23T05:38:35.371Z,89.21
2018-04-23T05:39:41.626Z,89.60
2018-04-23T05:40:47.836Z,89.16
2018-04-23T05:41:54.347Z,87.73
2018-04-23T05:43:00.579Z,88.06
2018-04-23T05:44:06.908Z,87.59
2018-04-23T05:45:13.209Z,87.06
2018-04-23T05:46:19.535Z,87.17
2018-04-23T05:47:26.485Z,87.54
2018-04-23T05:48:32.422Z,87.18
2018-04-23T05:49:38.648Z,86.76
2018-04-23T05:50:45.195Z,86.32
2018-04-23T05:51:52.037Z,86.08
2018-04-23T05:52:58.341Z,85.79
2018-04-23T05:54:04.583Z,85.27
2018-04-23T05:55:13.086Z,85.08
2018-04-23T05:56:19.310Z,84.91
2018-04-23T05:57:25.627Z,84.57
2018-04-23T05:58:31.871Z,84.70
2018-04-23T05:59:38.166Z,84.89
2018-04-23T06:00:44.733Z,84.72
2018-04-23T06:01:51.078Z,85.63
2018-04-23T06:02:58.366Z,86.21
2018-04-23T06:04:04.226Z,86.19
2018-04-23T06:05:10.523Z,86.36
2018-04-23T06:06:16.930Z,86.76
2018-04-23T06:07:23.795Z,87.41
2018-04-23T06:08:30.071Z,88.02
2018-04-23T06:09:36.974Z,88.25
2018-04-23T06:10:44.117Z,88.15
2018-04-23T06:11:51.669Z,88.93
2018-04-23T06:12:57.956Z,89.40
2018-04-23T06:14:04.235Z,89.44
2018-04-23T06:15:10.486Z,90.19
2018-04-23T06:16:16.793Z,90.21
2018-04-23T06:17:23.052Z,90.90
2018-04-23T06:18:29.340Z,91.10
2018-04-23T06:19:36.553Z,91.60
2018-04-23T06:20:42.838Z,91.69
2018-04-23T06:21:49.070Z,91.68
2018-04-23T06:22:57.199Z,91.91
2018-04-23T06:24:06.940Z,92.11
2018-04-23T06:25:13.225Z,92.11
2018-04-23T06:26:21.720Z,92.27
2018-04-23T06:27:29.544Z,93.21
2018-04-23T06:28:35.838Z,93.68
2018-04-23T06:29:42.282Z,93.30
2018-04-23T06:30:48.338Z,92.86
2018-04-23T06:31:54.698Z,92.63
2018-04-23T06:33:01.034Z,91.81
2018-04-23T06:34:07.309Z,91.90
2018-04-23T06:35:13.621Z,92.03
2018-04-23T06:36:19.940Z,92.33
2018-04-23T06:37:26.855Z,92.07
2018-04-23T06:38:33.143Z,92.45
2018-04-23T06:39:39.550Z,92.05
2018-04-23T06:40:45.763Z,92.78
2018-04-23T06:41:52.863Z,93.08
2018-04-23T06:42:59.863Z,92.83
2018-04-23T06:44:14.187Z,92.83
2018-04-23T06:45:20.359Z,93.53
2018-04-23T06:46:26.675Z,93.75
2018-04-23T06:47:33.392Z,94.40
2018-04-23T06:48:39.696Z,94.21
2018-04-23T06:49:45.979Z,93.86
2018-04-23T06:50:52.189Z,94.34
2018-04-23T06:51:58.445Z,94.80
2018-04-23T06:53:04.751Z,95.06
2018-04-23T06:54:11.046Z,96.01
2018-04-23T06:55:17.329Z,95.39
2018-04-23T06:56:23.331Z,95.44
2018-04-23T06:57:32.014Z,96.41
2018-04-23T06:58:39.100Z,96.17
2018-04-23T06:59:45.131Z,95.15
2018-04-23T07:00:53.759Z,97.14
2018-04-23T07:01:59.786Z,97.32
2018-04-23T07:03:06.077Z,97.68
2018-04-23T07:04:11.997Z,97.81
2018-04-23T07:05:18.256Z,96.63
2018-04-23T07:06:25.437Z,95.53
2018-04-23T07:07:31.870Z,94.82
2018-04-23T07:08:38.101Z,95.23
2018-04-23T07:09:44.306Z,95.24
2018-04-23T07:10:50.510Z,95.35
2018-04-23T07:11:57.377Z,95.12
2018-04-23T07:13:05.114Z,95.25
2018-04-23T07:14:12.603Z,95.38
2018-04-23T07:15:18.825Z,95.22
2018-04-23T07:16:25.061Z,95.62
2018-04-23T07:17:31.090Z,95.65
2018-04-23T07:18:37.399Z,95.73
2018-04-23T07:19:48.448Z,96.04
2018-04-23T07:20:54.970Z,95.49
2018-04-23T07:22:01.453Z,95.04
2018-04-23T07:23:07.545Z,95.24
2018-04-23T07:24:13.815Z,95.03
2018-04-23T07:25:20.042Z,96.00
2018-04-23T07:26:26.242Z,94.86
2018-04-23T07:27:32.488Z,94.85
2018-04-23T07:28:41.582Z,95.59
2018-04-23T07:29:48.747Z,95.84
2018-04-23T07:30:54.994Z,95.49
2018-04-23T07:32:01.183Z,95.54
2018-04-23T07:33:07.413Z,95.63
2018-04-23T07:34:14.374Z,94.93
2018-04-23T07:35:20.743Z,95.17
2018-04-23T07:36:27.820Z,95.53
2018-04-23T07:37:34.841Z,94.94
2018-04-23T07:38:41.127Z,95.58
2018-04-23T07:39:47.422Z,95.26
2018-04-23T07:40:53.637Z,95.52
2018-04-23T07:42:00.026Z,95.87
2018-04-23T07:43:06.304Z,96.12
2018-04-23T07:44:13.341Z,95.79
2018-04-23T07:45:21.042Z,95.75
2018-04-23T07:46:27.498Z,95.79
2018-04-23T07:47:34.314Z,95.86
2018-04-23T07:48:40.160Z,95.96
2018-04-23T07:49:46.388Z,96.05
2018-04-23T07:50:52.575Z,96.12
2018-04-23T07:51:58.819Z,95.75
2018-04-23T07:53:05.214Z,96.15
2018-04-23T07:54:11.465Z,96.17
2018-04-23T07:55:17.742Z,96.08
2018-04-23T07:56:24.008Z,95.81
2018-04-23T07:57:30.256Z,96.29
2018-04-23T07:58:36.483Z,96.46
2018-04-23T07:59:42.819Z,95.18
2018-04-23T08:00:49.089Z,94.98
2018-04-23T08:01:56.270Z,94.60
2018-04-23T08:03:02.566Z,94.28
2018-04-23T08:04:08.882Z,93.66
2018-04-23T08:05:15.136Z,93.98
2018-04-23T08:06:21.365Z,93.74
2018-04-23T08:07:27.622Z,94.32
2018-04-23T08:08:34.495Z,93.96
2018-04-23T08:09:40.734Z,93.60
2018-04-23T08:10:47.028Z,93.60
2018-04-23T08:11:53.334Z,93.39
2018-04-23T08:12:59.655Z,93.77
2018-04-23T08:14:05.462Z,93.71
2018-04-23T08:15:11.850Z,93.96
2018-04-23T08:16:18.145Z,93.56
2018-04-23T08:17:24.628Z,93.44
2018-04-23T08:18:30.837Z,93.43
2018-04-23T08:19:37.108Z,93.60
2018-04-23T08:20:45.965Z,93.97
2018-04-23T08:21:51.795Z,94.45
2018-04-23T08:22:58.127Z,94.67
2018-04-23T08:24:04.092Z,94.13
2018-04-23T08:25:10.302Z,93.96
2018-04-23T08:26:16.524Z,93.99
2018-04-23T08:27:22.793Z,94.08
2018-04-23T08:28:29.083Z,94.18
2018-04-23T08:29:36.433Z,94.42
2018-04-23T08:30:43.412Z,93.96
2018-04-23T08:31:49.614Z,94.75
2018-04-23T08:32:55.959Z,94.78
2018-04-23T08:34:02.271Z,93.89
2018-04-23T08:35:08.547Z,93.80
2018-04-23T08:36:17.743Z,93.46
2018-04-23T08:37:25.894Z,93.50
2018-04-23T08:38:31.916Z,93.50
2018-04-23T08:39:37.881Z,92.89
2018-04-23T08:40:44.107Z,92.97
2018-04-23T08:41:51.044Z,94.56
2018-04-23T08:42:57.381Z,94.21
2018-04-23T08:44:03.785Z,93.48
2018-04-23T08:45:10.055Z,93.20
2018-04-23T08:46:15.945Z,93.01
2018-04-23T08:47:22.189Z,93.44
2018-04-23T08:48:28.532Z,92.88
2018-04-23T08:49:34.807Z,93.65
2018-04-23T08:50:44.097Z,93.56
2018-04-23T08:51:53.351Z,93.35
2018-04-23T08:53:01.484Z,93.23
2018-04-23T08:54:07.759Z,93.62
2018-04-23T08:55:13.155Z,94.21
2018-04-23T08:56:19.420Z,93.63
2018-04-23T08:57:25.649Z,93.28
2018-04-23T08:58:32.220Z,94.19
2018-04-23T08:59:38.472Z,93.92
2018-04-23T09:00:44.792Z,94.68
2018-04-23T09:01:51.356Z,94.28
2018-04-23T09:02:57.622Z,94.85
2018-04-23T09:04:03.954Z,94.99
2018-04-23T09:05:10.267Z,94.58
2018-04-23T09:06:16.545Z,92.74
2018-04-23T09:07:24.630Z,93.62
2018-04-23T09:08:32.218Z,95.11
2018-04-23T09:09:38.468Z,94.86
2018-04-23T09:10:51.428Z,95.07
2018-04-23T09:11:58.243Z,95.03
2018-04-23T09:13:04.578Z,95.01
2018-04-23T09:14:10.904Z,94.28
2018-04-23T09:15:17.173Z,95.67
2018-04-23T09:16:23.470Z,95.69
2018-04-23T09:17:29.711Z,93.69
2018-04-23T09:18:36.032Z,92.86
2018-04-23T09:19:42.334Z,92.21
2018-04-23T09:20:48.584Z,92.08
2018-04-23T09:21:55.906Z,91.48
2018-04-23T09:23:03.319Z,91.11
2018-04-23T09:24:12.277Z,89.69
2018-04-23T09:25:18.590Z,89.22
2018-04-23T09:26:25.804Z,88.84
2018-04-23T09:27:32.027Z,88.05
2018-04-23T09:28:38.346Z,87.72
2018-04-23T09:29:44.638Z,84.01
2018-04-23T09:30:50.879Z,84.27
2018-04-23T09:31:58.295Z,86.14
2018-04-23T09:33:04.613Z,86.80
2018-04-23T09:34:10.905Z,87.88
2018-04-23T09:35:17.162Z,85.32
2018-04-23T09:36:24.014Z,85.63
2018-04-23T09:37:31.407Z,83.77
2018-04-23T09:38:41.836Z,83.62
2018-04-23T09:39:50.932Z,83.89
2018-04-23T09:40:59.495Z,83.06
2018-04-23T09:42:07.554Z,82.48
2018-04-23T09:43:14.885Z,82.21
2018-04-23T09:44:22.378Z,82.64
2018-04-23T09:45:30.062Z,82.83
2018-04-23T09:46:37.731Z,82.72
2018-04-23T09:47:44.836Z,81.61
2018-04-23T09:48:52.031Z,79.07
2018-04-23T09:49:59.726Z,80.69
2018-04-23T09:51:06.928Z,80.86
2018-04-23T09:52:15.099Z,80.12
2018-04-23T09:53:23.052Z,79.43
2018-04-23T09:54:30.793Z,79.06
2018-04-23T09:55:37.711Z,80.30
2018-04-23T09:56:46.077Z,79.55
2018-04-23T09:57:54.274Z,80.83
2018-04-23T09:59:00.390Z,79.53
2018-04-23T10:00:08.080Z,79.35
2018-04-23T10:01:21.994Z,79.62
2018-04-23T10:02:29.138Z,79.45
2018-04-23T10:03:41.433Z,79.50
2018-04-23T10:04:48.770Z,79.94
2018-04-23T10:05:55.832Z,79.53
2018-04-23T10:07:02.846Z,79.40
2018-04-23T10:08:10.044Z,79.18
2018-04-23T10:09:17.004Z,78.94
2018-04-23T10:10:24.185Z,77.48
2018-04-23T10:11:32.043Z,78.44
2018-04-23T10:12:39.240Z,79.27
2018-04-23T10:13:46.384Z,78.11
2018-04-23T10:14:53.209Z,77.35
2018-04-23T10:16:00.889Z,78.10
2018-04-23T10:17:07.346Z,77.97
2018-04-23T10:18:13.925Z,77.72
2018-04-23T10:19:21.150Z,79.20
2018-04-23T10:20:28.307Z,78.38
2018-04-23T10:21:34.547Z,79.08
2018-04-23T10:22:41.744Z,78.55
2018-04-23T10:23:48.827Z,77.80
2018-04-23T10:24:55.177Z,77.64
2018-04-23T10:26:02.742Z,76.98
2018-04-23T10:27:09.137Z,75.32
2018-04-23T10:28:15.342Z,76.98
2018-04-23T10:29:21.666Z,76.94
2018-04-23T10:30:28.650Z,77.06
2018-04-23T10:31:37.974Z,76.58
2018-04-23T10:32:45.519Z,76.18
2018-04-23T10:33:52.951Z,76.65
2018-04-23T10:35:05.456Z,77.60
2018-04-23T10:36:13.818Z,77.01
2018-04-23T10:37:20.365Z,77.59
2018-04-23T10:38:28.351Z,76.62
2018-04-23T10:39:35.090Z,77.22
2018-04-23T10:40:42.612Z,75.98
2018-04-23T10:41:49.722Z,76.27
2018-04-23T10:42:57.148Z,75.75
2018-04-23T10:44:04.249Z,76.21
2018-04-23T10:45:11.087Z,75.62
2018-04-23T10:46:17.968Z,75.95
2018-04-23T10:47:24.660Z,76.67
2018-04-23T10:48:31.283Z,77.10
2018-04-23T10:49:38.615Z,77.45
2018-04-23T10:50:45.526Z,78.08
2018-04-23T10:51:52.570Z,75.94
2018-04-23T10:52:59.635Z,76.11
2018-04-23T10:54:06.934Z,76.36
2018-04-23T10:55:14.370Z,75.47
2018-04-23T10:56:21.432Z,75.73
2018-04-23T10:57:28.945Z,74.88
2018-04-23T10:58:35.559Z,75.55
2018-04-23T10:59:42.020Z,75.79
2018-04-23T11:00:49.372Z,75.30
2018-04-23T11:01:57.832Z,75.06
2018-04-23T11:03:05.207Z,75.19
2018-04-23T11:04:12.170Z,75.51
2018-04-23T11:05:19.262Z,74.88
2018-04-23T11:06:26.199Z,75.37
2018-04-23T11:07:33.113Z,75.06
2018-04-23T11:08:39.734Z,74.25
2018-04-23T11:09:47.591Z,74.65
2018-04-23T11:10:54.607Z,75.48
2018-04-23T11:12:01.226Z,73.70
2018-04-23T11:13:08.852Z,73.51
2018-04-23T11:14:16.314Z,73.91
2018-04-23T11:15:24.606Z,73.24
2018-04-23T11:16:34.534Z,73.62
2018-04-23T11:17:41.790Z,73.42
2018-04-23T11:18:48.962Z,73.40
2018-04-23T11:19:55.223Z,73.26
2018-04-23T11:21:02.056Z,73.27
2018-04-23T11:22:08.803Z,73.86
2018-04-23T11:23:15.029Z,73.01
2018-04-23T11:24:21.242Z,74.12
2018-04-23T11:25:28.498Z,73.86
2018-04-23T11:26:35.875Z,73.47
2018-04-23T11:27:43.920Z,72.52
2018-04-23T11:28:52.627Z,74.22
2018-04-23T11:29:59.442Z,73.22
2018-04-23T11:31:07.195Z,73.25
2018-04-23T11:32:14.395Z,73.58
2018-04-23T11:33:22.451Z,73.13
2018-04-23T11:34:28.935Z,74.28
2018-04-23T11:35:35.302Z,75.03
2018-04-23T11:36:41.554Z,74.24
2018-04-23T11:37:48.186Z,73.30
2018-04-23T11:38:55.641Z,73.04
2018-04-23T11:40:03.994Z,74.22
2018-04-23T11:41:16.684Z,73.62
2018-04-23T11:42:26.026Z,73.93
2018-04-23T11:43:33.648Z,73.79
2018-04-23T11:44:41.704Z,74.37
2018-04-23T11:45:49.667Z,74.20
2018-04-23T11:47:00.157Z,73.96
2018-04-23T11:48:06.601Z,73.57
2018-04-23T11:49:13.211Z,73.35
2018-04-23T11:50:19.859Z,73.61
2018-04-23T11:51:26.148Z,73.45
2018-04-23T11:52:32.406Z,73.16
2018-04-23T11:53:38.667Z,73.62
2018-04-23T11:54:45.136Z,73.49
2018-04-23T11:55:51.694Z,73.50
2018-04-23T11:56:57.923Z,73.92
2018-04-23T11:58:04.313Z,73.89
2018-04-23T11:59:10.971Z,73.42
2018-04-23T12:00:17.570Z,73.60
2018-04-23T12:01:24.008Z,73.77
2018-04-23T12:02:30.425Z,73.33
2018-04-23T12:03:37.217Z,72.56
2018-04-23T12:04:43.635Z,72.55
2018-04-23T12:05:50.354Z,72.25
2018-04-23T12:06:56.744Z,71.80
2018-04-23T12:08:03.495Z,71.91
2018-04-23T12:09:09.889Z,71.70
2018-04-23T12:10:16.319Z,71.99
2018-04-23T12:11:22.695Z,71.53
2018-04-23T12:12:29.143Z,72.13
2018-04-23T12:13:36.496Z,72.49
2018-04-23T12:14:42.894Z,72.56
2018-04-23T12:15:49.194Z,72.86
2018-04-23T12:16:56.431Z,72.83
2018-04-23T12:18:03.765Z,72.83
2018-04-23T12:19:10.807Z,72.44
2018-04-23T12:20:18.115Z,72.50
2018-04-23T12:21:25.066Z,73.13
2018-04-23T12:22:33.908Z,74.21
2018-04-23T12:23:41.767Z,74.97
2018-04-23T12:24:49.195Z,75.96
2018-04-23T12:25:56.857Z,75.31
2018-04-23T12:27:04.533Z,76.60
2018-04-23T12:28:13.217Z,76.61
2018-04-23T12:29:23.197Z,78.27
2018-04-23T12:30:32.241Z,78.32
2018-04-23T12:31:39.970Z,78.17
2018-04-23T12:32:51.281Z,77.59
2018-04-23T12:33:59.073Z,76.82
2018-04-23T12:35:06.181Z,77.04
2018-04-23T12:36:14.278Z,77.45
2018-04-23T12:37:21.785Z,77.94
2018-04-23T12:38:29.298Z,79.02
2018-04-23T12:39:35.590Z,78.07
2018-04-23T12:40:42.123Z,79.29
2018-04-23T12:41:48.511Z,79.30
2018-04-23T12:42:54.830Z,78.96
2018-04-23T12:44:01.014Z,78.66
2018-04-23T12:45:07.223Z,76.81
2018-04-23T12:46:13.504Z,77.28
2018-04-23T12:47:20.081Z,76.14
2018-04-23T12:48:26.363Z,75.20
2018-04-23T12:49:32.657Z,76.15
2018-04-23T12:50:38.894Z,75.28
2018-04-23T12:51:45.121Z,75.26
2018-04-23T12:52:51.419Z,73.98
2018-04-23T12:53:57.734Z,74.90
2018-04-23T12:55:03.705Z,74.55
2018-04-23T12:56:12.389Z,73.29
2018-04-23T12:57:18.566Z,74.51
2018-04-23T12:58:24.819Z,74.30
2018-04-23T12:59:31.487Z,73.64
2018-04-23T13:00:37.851Z,73.48
2018-04-23T13:01:43.881Z,73.43
2018-04-23T13:02:50.172Z,75.26
2018-04-23T13:03:56.362Z,75.04
2018-04-23T13:05:02.686Z,73.93
2018-04-23T13:06:09.028Z,73.86
2018-04-23T13:07:15.990Z,71.45
2018-04-23T13:08:22.579Z,71.98
2018-04-23T13:09:29.366Z,71.96
2018-04-23T13:10:36.404Z,71.79
2018-04-23T13:11:48.671Z,70.43
2018-04-23T13:12:56.452Z,71.85
2018-04-23T13:14:02.976Z,71.01
2018-04-23T13:15:10.219Z,71.00
2018-04-23T13:16:17.154Z,70.78
2018-04-23T13:17:23.335Z,71.50
2018-04-23T13:18:29.765Z,70.86
2018-04-23T13:19:37.166Z,70.81
2018-04-23T13:20:44.217Z,70.33
2018-04-23T13:21:51.373Z,70.51
2018-04-23T13:22:58.682Z,69.70
2018-04-23T13:24:06.711Z,69.36
2018-04-23T13:25:13.251Z,69.16
2018-04-23T13:26:19.651Z,69.15
2018-04-23T13:27:26.517Z,68.08
2018-04-23T13:28:32.755Z,67.66
2018-04-23T13:29:39.112Z,67.69
2018-04-23T13:30:45.355Z,68.43
2018-04-23T13:31:51.611Z,67.32
2018-04-23T13:32:57.885Z,66.24
2018-04-23T13:34:04.095Z,66.84
2018-04-23T13:35:10.407Z,65.47
2018-04-23T13:36:16.647Z,66.24
2018-04-23T13:37:22.959Z,64.76
2018-04-23T13:38:29.301Z,65.44
2018-04-23T13:39:35.322Z,63.97
2018-04-23T13:40:41.568Z,64.87
2018-04-23T13:41:47.890Z,65.08
2018-04-23T13:42:56.854Z,64.58
2018-04-23T13:44:03.852Z,64.41
2018-04-23T13:45:10.078Z,62.13
2018-04-23T13:46:16.303Z,62.32
2018-04-23T13:47:22.267Z,62.63
2018-04-23T13:48:28.516Z,61.82
2018-04-23T13:49:34.865Z,60.93
2018-04-23T13:50:41.140Z,60.69
2018-04-23T13:51:47.460Z,59.30
2018-04-23T13:52:53.718Z,58.43
2018-04-23T13:53:59.948Z,58.38
2018-04-23T13:55:06.196Z,57.62
2018-04-23T13:56:12.895Z,58.59
2018-04-23T13:57:19.316Z,58.01
2018-04-23T13:58:29.181Z,57.53
2018-04-23T13:59:36.803Z,59.25
2018-04-23T14:00:43.795Z,55.71
2018-04-23T14:01:51.020Z,57.53
2018-04-23T14:02:57.204Z,55.37
2018-04-23T14:04:03.417Z,56.97
2018-04-23T14:05:09.631Z,55.53
2018-04-23T14:06:15.862Z,55.95
2018-04-23T14:07:22.183Z,55.81
2018-04-23T14:08:28.503Z,56.23
2018-04-23T14:09:34.787Z,56.16
2018-04-23T14:10:41.097Z,56.64
2018-04-23T14:11:47.424Z,56.94
2018-04-23T14:12:54.058Z,57.47
2018-04-23T14:14:02.692Z,56.53
2018-04-23T14:15:10.940Z,56.67
2018-04-23T14:16:17.182Z,56.08
2018-04-23T14:17:24.369Z,56.54
2018-04-23T14:18:30.699Z,55.83
2018-04-23T14:19:37.006Z,55.85
2018-04-23T14:20:43.206Z,53.70
2018-04-23T14:21:49.443Z,51.88
2018-04-23T14:22:55.722Z,52.97